Time;durP1;ratioP1;P1;durP2;ratioP2;P2;SDS_P1;SDS_P2;PMS_P1;PMS_P2;Temp;Humidity;BMP_temperature;BMP_pressure;BME280_temperature;BME280_humidity;BME280_pressure;Samples;Min_cycle;Max_cycle;Signal;HPM_P1;HPM_P2
2023/09/24 00:01:44;;;;;;;7.93;4.28;;;11.30;99.90;;;;;;5064807;28;20142;-76
2023/09/24 00:04:11;;;;;;;9.52;4.03;;;11.30;99.90;;;;;;5051206;28;20048;-76
2023/09/24 00:06:37;;;;;;;8.45;4.07;;;11.40;99.90;;;;;;5050495;28;20699;-76
2023/09/24 00:09:03;;;;;;;8.68;4.07;;;11.40;99.90;;;;;;5041973;28;20032;-76
2023/09/24 00:11:29;;;;;;;7.65;3.65;;;11.40;99.90;;;;;;5026301;28;20048;-77
2023/09/24 00:13:54;;;;;;;9.50;4.03;;;11.40;99.90;;;;;;5052169;28;20041;-77
2023/09/24 00:16:20;;;;;;;8.70;3.47;;;11.40;99.90;;;;;;5049065;28;20094;-76
2023/09/24 00:18:46;;;;;;;7.68;3.60;;;11.40;99.90;;;;;;5053392;28;20490;-76
2023/09/24 00:21:12;;;;;;;6.50;3.88;;;11.30;99.90;;;;;;5048467;28;20098;-76
2023/09/24 00:23:39;;;;;;;6.78;3.80;;;11.30;99.90;;;;;;5042788;28;20052;-76
2023/09/24 00:26:05;;;;;;;8.05;3.50;;;11.30;99.90;;;;;;5040204;28;20048;-76
2023/09/24 00:28:31;;;;;;;8.02;3.75;;;11.20;99.90;;;;;;5024859;28;20033;-76
2023/09/24 00:30:58;;;;;;;4.70;3.10;;;11.20;99.90;;;;;;5047198;28;20029;-77
2023/09/24 00:33:24;;;;;;;7.13;3.63;;;11.10;99.90;;;;;;5047172;28;20044;-77
2023/09/24 00:35:51;;;;;;;10.38;3.50;;;11.10;99.90;;;;;;5049243;28;20384;-76
2023/09/24 00:38:20;;;;;;;10.63;3.22;;;11.10;99.90;;;;;;5044069;28;20045;-76
2023/09/24 00:40:46;;;;;;;12.15;2.92;;;11.00;99.90;;;;;;5043698;28;20561;-77
2023/09/24 00:43:33;;;;;;;4.53;2.58;;;10.90;99.90;;;;;;5056262;28;20174;-76
2023/09/24 00:46:07;;;;;;;7.25;3.13;;;10.90;99.90;;;;;;5028590;28;20084;-77
2023/09/24 00:48:33;;;;;;;9.82;2.97;;;10.90;99.90;;;;;;5061821;28;20052;-76
2023/09/24 00:51:02;;;;;;;4.75;2.78;;;10.90;99.90;;;;;;5042094;28;20475;-77
2023/09/24 00:53:29;;;;;;;8.48;3.30;;;10.90;99.90;;;;;;5053400;28;20078;-76
2023/09/24 00:55:56;;;;;;;6.95;3.35;;;10.90;99.90;;;;;;5053952;28;20055;-77
2023/09/24 00:58:25;;;;;;;6.72;3.83;;;10.90;99.90;;;;;;5035479;28;20062;-76
2023/09/24 01:00:55;;;;;;;7.07;3.35;;;10.90;99.90;;;;;;5050027;28;20074;-76
2023/09/24 01:03:26;;;;;;;8.35;3.65;;;10.90;99.90;;;;;;5037384;28;20076;-76
2023/09/24 01:05:52;;;;;;;7.00;2.90;;;10.90;99.90;;;;;;5055871;28;20045;-76
2023/09/24 01:08:23;;;;;;;4.88;3.00;;;10.90;99.90;;;;;;5049119;28;20040;-77
2023/09/24 01:10:50;;;;;;;5.18;2.97;;;10.90;99.90;;;;;;5041952;28;20047;-76
2023/09/24 01:13:19;;;;;;;6.30;3.00;;;10.90;99.90;;;;;;5041611;28;20048;-76
2023/09/24 01:15:48;;;;;;;6.97;2.78;;;10.80;99.90;;;;;;5046601;28;20371;-76
2023/09/24 01:18:14;;;;;;;4.78;2.88;;;10.80;99.90;;;;;;5047374;28;20044;-76
2023/09/24 01:20:40;;;;;;;7.15;2.70;;;10.80;99.90;;;;;;5035444;28;20044;-76
2023/09/24 01:23:12;;;;;;;5.60;2.70;;;10.80;99.90;;;;;;5048298;28;20047;-76
2023/09/24 01:25:40;;;;;;;7.40;3.20;;;10.80;99.90;;;;;;5061690;28;20044;-77
2023/09/24 01:28:07;;;;;;;6.40;3.08;;;10.80;99.90;;;;;;5046390;28;20486;-76
2023/09/24 01:30:34;;;;;;;5.05;2.63;;;10.80;99.90;;;;;;5046287;28;20044;-76
2023/09/24 01:33:00;;;;;;;4.55;2.38;;;10.80;99.90;;;;;;5046024;28;20040;-77
2023/09/24 01:35:29;;;;;;;5.68;3.38;;;10.80;99.90;;;;;;5037435;28;20499;-77
2023/09/24 01:38:00;;;;;;;8.95;2.88;;;10.80;99.90;;;;;;5054219;28;20048;-77
2023/09/24 01:40:28;;;;;;;5.53;2.90;;;10.70;99.90;;;;;;5049148;28;20044;-76
2023/09/24 01:43:00;;;;;;;6.47;2.38;;;10.60;99.90;;;;;;5048045;28;20414;-76
2023/09/24 01:45:28;;;;;;;4.80;2.88;;;10.50;99.90;;;;;;5048336;28;20473;-76
2023/09/24 01:47:55;;;;;;;5.18;2.45;;;10.50;99.90;;;;;;5054024;28;20510;-77
2023/09/24 01:50:27;;;;;;;7.68;2.40;;;10.40;99.90;;;;;;5050422;28;20036;-76
2023/09/24 01:52:57;;;;;;;6.43;2.60;;;10.30;99.90;;;;;;5053496;28;20036;-77
2023/09/24 01:55:24;;;;;;;6.90;2.70;;;10.30;99.90;;;;;;5042347;28;20486;-76
2023/09/24 01:57:51;;;;;;;4.60;2.50;;;10.20;99.90;;;;;;5033982;28;20047;-78
2023/09/24 02:00:24;;;;;;;6.68;3.00;;;10.10;99.90;;;;;;5063577;28;20040;-77
2023/09/24 02:02:54;;;;;;;5.50;2.80;;;10.10;99.90;;;;;;5068928;28;20045;-77
2023/09/24 02:05:20;;;;;;;5.82;2.85;;;10.10;99.90;;;;;;5044047;28;20048;-77
2023/09/24 02:07:49;;;;;;;4.78;2.60;;;10.00;99.90;;;;;;5053016;28;20051;-77
2023/09/24 02:10:18;;;;;;;5.20;2.53;;;10.00;99.90;;;;;;5050463;28;20044;-77
2023/09/24 02:12:45;;;;;;;6.80;2.90;;;9.90;99.90;;;;;;5049498;28;20045;-77
2023/09/24 02:15:18;;;;;;;3.92;2.50;;;9.90;99.90;;;;;;5050069;28;20048;-77
2023/09/24 02:17:45;;;;;;;5.80;3.03;;;9.90;99.90;;;;;;5038284;28;20044;-77
2023/09/24 02:22:59;;;;;;;5.97;3.20;;;9.90;99.90;;;;;;5059172;28;20125;-77
2023/09/24 02:25:33;;;;;;;6.00;2.67;;;9.90;99.90;;;;;;5044944;28;20051;-77
2023/09/24 02:27:59;;;;;;;6.35;3.10;;;9.90;99.90;;;;;;5042605;28;20041;-77
2023/09/24 02:30:29;;;;;;;7.57;3.63;;;10.00;99.90;;;;;;5066761;28;20101;-77
2023/09/24 02:32:59;;;;;;;6.28;3.65;;;9.90;99.90;;;;;;5027404;28;20072;-77
2023/09/24 02:35:26;;;;;;;5.07;3.33;;;9.90;99.90;;;;;;5034935;28;20072;-77
2023/09/24 02:37:52;;;;;;;5.70;3.45;;;9.90;99.90;;;;;;5035824;28;20045;-77
2023/09/24 02:40:31;;;;;;;7.20;3.63;;;9.90;99.90;;;;;;5062096;28;20574;-77
2023/09/24 02:42:59;;;;;;;6.45;3.53;;;9.80;99.90;;;;;;5051766;28;20051;-77
2023/09/24 02:45:26;;;;;;;6.63;3.70;;;9.80;99.90;;;;;;5068311;28;20052;-77
2023/09/24 02:47:52;;;;;;;9.40;3.35;;;9.80;99.90;;;;;;5030019;28;20039;-77
2023/09/24 02:50:21;;;;;;;6.40;3.63;;;9.80;99.90;;;;;;5051953;28;20546;-77
2023/09/24 02:52:47;;;;;;;8.88;4.28;;;9.80;99.90;;;;;;5033688;28;20108;-77
2023/09/24 02:55:14;;;;;;;9.57;4.30;;;9.80;99.90;;;;;;5047998;28;20455;-77
2023/09/24 02:57:41;;;;;;;32.70;5.53;;;9.80;99.90;;;;;;5049818;28;20052;-77
2023/09/24 03:00:12;;;;;;;20.63;5.18;;;9.80;99.90;;;;;;5034113;28;20106;-77
2023/09/24 03:02:38;;;;;;;14.32;4.78;;;9.90;99.90;;;;;;5036607;28;20068;-78
2023/09/24 03:05:12;;;;;;;11.25;4.30;;;9.90;99.90;;;;;;5042321;28;20051;-76
2023/09/24 03:07:42;;;;;;;11.15;4.25;;;10.00;99.90;;;;;;5048797;28;20037;-76
2023/09/24 03:10:13;;;;;;;13.43;4.90;;;10.00;99.90;;;;;;5042458;28;20120;-77
2023/09/24 03:12:43;;;;;;;7.43;4.10;;;9.90;99.90;;;;;;5034419;28;20047;-77
2023/09/24 03:15:12;;;;;;;6.85;4.20;;;9.80;99.90;;;;;;5021887;28;20044;-77
2023/09/24 03:17:43;;;;;;;6.05;3.83;;;9.80;99.90;;;;;;5033213;28;20044;-77
2023/09/24 03:20:16;;;;;;;10.88;3.83;;;9.80;99.90;;;;;;5021604;28;20041;-77
2023/09/24 03:22:48;;;;;;;14.13;5.35;;;9.80;99.90;;;;;;5037002;28;20047;-77
2023/09/24 03:25:18;;;;;;;14.85;5.30;;;9.90;99.90;;;;;;5033201;28;20576;-77
2023/09/24 03:27:48;;;;;;;8.77;4.22;;;9.90;99.90;;;;;;5044013;28;20124;-77
2023/09/24 03:30:17;;;;;;;11.40;4.60;;;9.90;99.90;;;;;;5049916;28;20169;-77
2023/09/24 03:32:53;;;;;;;13.23;4.57;;;9.90;99.90;;;;;;5046065;28;20138;-77
2023/09/24 03:35:23;;;;;;;11.60;7.00;;;9.90;99.90;;;;;;5049559;28;20048;-77
2023/09/24 03:37:50;;;;;;;9.32;4.95;;;9.90;99.90;;;;;;5063298;28;20072;-77
2023/09/24 03:40:17;;;;;;;6.35;4.32;;;9.90;99.90;;;;;;5052000;28;20141;-77
2023/09/24 03:42:44;;;;;;;8.07;4.90;;;9.90;99.90;;;;;;5047573;28;20110;-77
2023/09/24 03:45:18;;;;;;;9.35;5.22;;;9.80;99.90;;;;;;5049141;28;20056;-77
2023/09/24 03:47:45;;;;;;;10.07;5.07;;;9.80;99.90;;;;;;5046389;28;20121;-78
2023/09/24 03:50:16;;;;;;;7.63;4.82;;;9.80;99.90;;;;;;5045828;28;20044;-77
2023/09/24 03:52:52;;;;;;;9.15;4.97;;;9.70;99.90;;;;;;5048529;28;20124;-77
2023/09/24 03:55:21;;;;;;;9.40;5.30;;;9.70;99.90;;;;;;5045461;28;20052;-77
2023/09/24 03:57:47;;;;;;;7.97;5.25;;;9.70;99.90;;;;;;5049716;28;20039;-77
2023/09/24 04:00:16;;;;;;;10.10;5.07;;;9.70;99.90;;;;;;5045335;28;20040;-77
2023/09/24 04:02:49;;;;;;;7.25;4.88;;;9.70;99.90;;;;;;5054817;28;20071;-77
2023/09/24 04:05:17;;;;;;;8.80;5.50;;;9.60;99.90;;;;;;5042649;28;20048;-76
2023/09/24 04:07:44;;;;;;;8.27;5.28;;;9.60;99.90;;;;;;5054040;28;20048;-77
2023/09/24 04:10:14;;;;;;;11.18;5.32;;;9.50;99.90;;;;;;5048303;28;20666;-76
2023/09/24 04:12:43;;;;;;;9.40;5.07;;;9.50;99.90;;;;;;5055108;28;20036;-77
2023/09/24 04:15:10;;;;;;;10.48;5.35;;;9.40;99.90;;;;;;5040196;28;20525;-77
2023/09/24 04:17:41;;;;;;;8.68;5.22;;;9.30;99.90;;;;;;5037011;28;20052;-78
2023/09/24 04:20:08;;;;;;;8.70;5.10;;;9.40;99.90;;;;;;5045536;28;20033;-77
2023/09/24 04:22:33;;;;;;;9.75;4.97;;;9.30;99.90;;;;;;5043498;28;20477;-77
2023/09/24 04:24:59;;;;;;;7.47;4.88;;;9.30;99.90;;;;;;5040311;28;20043;-78
2023/09/24 04:27:26;;;;;;;8.15;5.68;;;9.30;99.90;;;;;;5025491;28;20720;-78
2023/09/24 04:29:52;;;;;;;8.35;5.20;;;9.30;99.90;;;;;;5047098;28;20037;-77
2023/09/24 04:32:17;;;;;;;9.50;5.30;;;9.20;99.90;;;;;;5027573;28;20044;-78
2023/09/24 04:34:46;;;;;;;9.38;5.80;;;9.20;99.90;;;;;;5044682;28;20550;-77
2023/09/24 04:37:12;;;;;;;7.43;5.30;;;9.20;99.90;;;;;;5038709;28;20064;-77
2023/09/24 04:39:38;;;;;;;9.02;5.72;;;9.20;99.90;;;;;;5027315;28;20047;-78
2023/09/24 04:42:06;;;;;;;9.73;5.00;;;9.20;99.90;;;;;;5032296;28;20053;-77
2023/09/24 04:44:32;;;;;;;8.32;5.10;;;9.10;99.90;;;;;;5048352;28;20044;-77
2023/09/24 04:46:57;;;;;;;9.55;5.35;;;9.10;99.90;;;;;;5043042;28;20036;-77
2023/09/24 04:49:23;;;;;;;7.75;4.63;;;9.10;99.90;;;;;;5054827;28;20036;-77
2023/09/24 04:51:50;;;;;;;11.57;5.90;;;9.10;99.90;;;;;;5036585;28;20036;-78
2023/09/24 04:54:16;;;;;;;9.85;5.30;;;9.10;99.90;;;;;;5049024;28;20060;-78
2023/09/24 04:56:41;;;;;;;9.85;5.60;;;9.10;99.90;;;;;;5054263;28;20044;-77
2023/09/24 04:59:07;;;;;;;12.68;5.88;;;9.00;99.90;;;;;;5053230;28;20753;-77
2023/09/24 05:01:33;;;;;;;12.40;5.25;;;9.00;99.90;;;;;;5045583;28;20044;-77
2023/09/24 05:03:59;;;;;;;10.07;5.35;;;9.00;99.90;;;;;;5039226;28;20109;-77
2023/09/24 05:06:25;;;;;;;10.95;5.95;;;9.00;99.90;;;;;;5056467;28;20469;-78
2023/09/24 05:08:52;;;;;;;11.80;5.38;;;9.00;99.90;;;;;;5031243;28;20199;-78
2023/09/24 05:11:18;;;;;;;15.82;5.47;;;9.00;99.90;;;;;;5030111;28;20422;-77
2023/09/24 05:13:47;;;;;;;13.10;6.30;;;9.00;99.90;;;;;;5046901;28;20033;-77
2023/09/24 05:16:12;;;;;;;10.30;5.45;;;9.10;99.90;;;;;;5057137;28;20406;-77
2023/09/24 05:18:38;;;;;;;11.23;6.20;;;9.10;99.90;;;;;;5022884;28;20044;-77
2023/09/24 05:21:12;;;;;;;9.93;5.97;;;9.10;99.90;;;;;;5046716;28;20573;-77
2023/09/24 05:23:38;;;;;;;16.15;6.97;;;9.10;99.90;;;;;;5048841;28;20105;-76
2023/09/24 05:26:03;;;;;;;10.05;6.18;;;9.10;99.90;;;;;;5032498;28;20492;-77
2023/09/24 05:28:29;;;;;;;11.98;6.10;;;9.10;99.90;;;;;;5028328;28;20040;-77
2023/09/24 05:30:57;;;;;;;9.98;6.03;;;9.10;99.90;;;;;;5042749;28;20048;-77
2023/09/24 05:33:22;;;;;;;9.73;6.07;;;9.10;99.90;;;;;;5041690;28;20072;-77
2023/09/24 05:35:52;;;;;;;11.60;6.03;;;9.10;99.90;;;;;;5044080;28;20076;-78
2023/09/24 05:38:17;;;;;;;10.48;6.25;;;9.10;99.90;;;;;;5030048;28;20068;-77
2023/09/24 05:40:43;;;;;;;12.18;6.10;;;9.20;99.90;;;;;;5046338;28;20076;-76
2023/09/24 05:43:10;;;;;;;11.55;6.25;;;9.10;99.90;;;;;;5042874;28;20106;-76
2023/09/24 05:45:37;;;;;;;12.82;6.80;;;9.10;99.90;;;;;;5044239;28;20049;-77
2023/09/24 05:48:03;;;;;;;14.38;6.60;;;9.20;99.90;;;;;;5042111;28;20154;-76
2023/09/24 05:50:29;;;;;;;10.73;7.03;;;9.20;99.90;;;;;;5042409;28;20040;-76
2023/09/24 05:52:55;;;;;;;12.73;6.40;;;9.20;99.90;;;;;;5064469;28;20039;-77
2023/09/24 05:55:20;;;;;;;16.15;7.03;;;9.10;99.90;;;;;;5041798;28;20049;-77
2023/09/24 05:57:46;;;;;;;13.25;6.45;;;9.20;99.90;;;;;;5036666;28;20051;-76
2023/09/24 06:00:12;;;;;;;14.85;7.15;;;9.20;99.90;;;;;;5031215;28;20051;-77
2023/09/24 06:02:38;;;;;;;12.38;6.72;;;9.20;99.90;;;;;;5037699;28;20467;-76
2023/09/24 06:05:07;;;;;;;13.27;6.55;;;9.20;99.90;;;;;;5047588;28;20036;-76
2023/09/24 06:07:32;;;;;;;13.68;6.88;;;9.30;99.90;;;;;;5040408;28;20033;-77
2023/09/24 06:10:04;;;;;;;11.48;6.50;;;9.30;99.90;;;;;;5047111;28;20486;-77
2023/09/24 06:12:31;;;;;;;12.32;6.65;;;9.50;99.90;;;;;;5048697;28;20044;-78
2023/09/24 06:14:56;;;;;;;13.95;6.72;;;9.50;99.90;;;;;;5045149;28;20060;-78
2023/09/24 06:17:22;;;;;;;14.68;6.43;;;9.60;99.90;;;;;;5047220;28;20541;-78
2023/09/24 06:19:48;;;;;;;17.88;6.03;;;9.70;99.90;;;;;;5042381;28;20109;-78
2023/09/24 06:22:13;;;;;;;12.18;6.22;;;9.70;99.90;;;;;;5030974;28;20045;-78
2023/09/24 06:24:39;;;;;;;11.77;6.13;;;9.80;99.90;;;;;;5030598;28;20048;-79
2023/09/24 06:27:04;;;;;;;11.23;6.10;;;9.80;99.90;;;;;;5050876;28;20044;-78
2023/09/24 06:29:34;;;;;;;10.70;5.97;;;9.80;99.90;;;;;;5034149;28;20530;-78
2023/09/24 06:31:59;;;;;;;13.93;6.07;;;9.80;99.90;;;;;;5057439;28;20064;-77
2023/09/24 06:34:26;;;;;;;10.88;5.57;;;9.80;99.90;;;;;;5047995;28;20530;-77
2023/09/24 06:36:51;;;;;;;13.77;5.85;;;9.80;99.90;;;;;;5045660;28;20041;-79
2023/09/24 06:39:17;;;;;;;9.27;5.95;;;9.80;99.90;;;;;;5048534;28;20457;-79
2023/09/24 06:41:43;;;;;;;10.65;6.30;;;9.90;99.90;;;;;;5036265;28;20414;-80
2023/09/24 06:44:10;;;;;;;9.38;5.95;;;9.90;99.90;;;;;;5027401;28;20570;-79
2023/09/24 06:46:36;;;;;;;14.60;6.57;;;10.00;99.90;;;;;;5047753;28;20070;-79
2023/09/24 06:49:02;;;;;;;12.05;6.82;;;10.10;99.90;;;;;;5050483;28;21173;-79
2023/09/24 06:51:28;;;;;;;12.30;6.38;;;10.10;99.90;;;;;;5047371;28;20510;-79
2023/09/24 06:53:54;;;;;;;12.95;6.32;;;10.10;99.90;;;;;;5026389;28;20479;-80
2023/09/24 06:56:19;;;;;;;12.75;6.57;;;10.20;99.90;;;;;;5040748;28;20049;-80
2023/09/24 06:58:45;;;;;;;16.45;6.50;;;10.30;99.90;;;;;;5036143;28;20052;-80
2023/09/24 07:01:11;;;;;;;16.45;6.97;;;10.30;99.90;;;;;;5061030;28;20503;-79
2023/09/24 07:03:37;;;;;;;12.18;6.50;;;10.40;99.90;;;;;;5070766;28;20061;-79
2023/09/24 07:06:04;;;;;;;11.82;6.82;;;10.40;99.90;;;;;;5038805;28;20112;-79
2023/09/24 07:08:33;;;;;;;13.57;6.90;;;10.50;99.90;;;;;;5055662;28;20040;-79
2023/09/24 07:11:28;;;;;;;15.13;7.13;;;10.50;99.90;;;;;;5035830;28;20490;-80
2023/09/24 07:13:55;;;;;;;11.98;6.68;;;10.60;99.90;;;;;;5054788;28;20495;-80
2023/09/24 07:16:24;;;;;;;12.50;7.22;;;10.60;99.90;;;;;;5047215;28;20052;-80
2023/09/24 07:18:51;;;;;;;13.45;6.60;;;10.60;99.90;;;;;;5032205;28;20045;-79
2023/09/24 07:21:18;;;;;;;15.80;6.90;;;10.70;99.90;;;;;;5047798;28;20084;-79
2023/09/24 07:23:44;;;;;;;12.27;6.85;;;10.60;99.90;;;;;;5052632;28;20048;-79
2023/09/24 07:26:10;;;;;;;10.27;6.35;;;10.70;99.90;;;;;;5034942;28;20132;-79
2023/09/24 07:28:35;;;;;;;12.82;6.63;;;10.70;99.90;;;;;;5043525;28;20029;-79
2023/09/24 07:31:01;;;;;;;14.20;7.03;;;10.70;99.90;;;;;;5035347;28;20033;-79
2023/09/24 07:33:27;;;;;;;11.30;6.85;;;10.80;99.90;;;;;;5051743;28;20039;-79
2023/09/24 07:35:53;;;;;;;11.35;6.90;;;10.80;99.90;;;;;;5035160;28;20048;-79
2023/09/24 07:38:18;;;;;;;11.90;6.60;;;10.80;99.90;;;;;;5051623;28;20044;-80
2023/09/24 07:40:44;;;;;;;17.05;7.40;;;10.90;99.90;;;;;;5024533;28;20531;-79
2023/09/24 07:43:11;;;;;;;12.93;7.28;;;10.90;99.90;;;;;;5048441;28;20127;-80
2023/09/24 07:45:36;;;;;;;14.23;7.53;;;11.00;99.90;;;;;;5030393;28;20049;-80
2023/09/24 07:48:13;;;;;;;17.05;7.22;;;11.00;99.90;;;;;;5043459;28;20040;-79
2023/09/24 07:50:39;;;;;;;15.85;7.18;;;11.00;99.90;;;;;;5051837;28;20045;-79
2023/09/24 07:53:05;;;;;;;15.68;6.95;;;11.00;99.90;;;;;;5044006;28;20044;-78
2023/09/24 07:55:31;;;;;;;14.98;7.30;;;11.20;99.90;;;;;;5043409;28;20045;-79
2023/09/24 07:57:57;;;;;;;10.63;6.47;;;11.20;99.90;;;;;;5036856;28;20498;-79
2023/09/24 08:00:23;;;;;;;14.23;6.30;;;11.30;99.90;;;;;;5024170;28;20106;-79
2023/09/24 08:02:48;;;;;;;12.00;6.72;;;11.30;99.90;;;;;;5041311;28;20048;-80
2023/09/24 08:05:15;;;;;;;13.15;6.38;;;11.40;99.90;;;;;;5034735;28;20040;-78
2023/09/24 08:07:40;;;;;;;15.05;6.60;;;11.50;99.90;;;;;;5059539;28;20079;-79
2023/09/24 08:10:06;;;;;;;12.77;6.75;;;11.60;99.90;;;;;;5039014;28;20044;-79
2023/09/24 08:12:32;;;;;;;13.05;6.93;;;11.60;99.90;;;;;;5051725;28;20218;-79
2023/09/24 08:14:58;;;;;;;11.07;5.82;;;11.70;99.90;;;;;;5047253;28;20035;-78
2023/09/24 08:17:23;;;;;;;13.50;7.03;;;11.80;99.90;;;;;;5043749;28;20056;-79
2023/09/24 08:19:49;;;;;;;13.52;5.97;;;11.80;99.90;;;;;;5058817;28;20052;-80
2023/09/24 08:22:15;;;;;;;9.32;6.18;;;11.90;99.90;;;;;;5058095;28;20122;-79
2023/09/24 08:24:41;;;;;;;12.25;6.13;;;12.00;99.90;;;;;;5050795;28;20394;-79
2023/09/24 08:27:06;;;;;;;13.38;5.90;;;12.00;99.90;;;;;;5051198;28;20044;-79
2023/09/24 08:29:33;;;;;;;16.10;5.60;;;12.10;99.90;;;;;;5046872;28;20036;-79
2023/09/24 08:31:58;;;;;;;12.15;5.97;;;12.10;99.90;;;;;;5032874;28;20386;-79
2023/09/24 08:34:26;;;;;;;11.35;5.00;;;12.20;99.90;;;;;;5035245;28;20045;-79
2023/09/24 08:36:52;;;;;;;11.82;5.30;;;12.30;99.90;;;;;;5046295;28;20047;-79
2023/09/24 08:39:18;;;;;;;8.95;4.85;;;12.30;99.90;;;;;;5034674;28;20041;-78
2023/09/24 08:41:44;;;;;;;11.68;4.70;;;12.30;99.90;;;;;;5040794;28;20106;-78
2023/09/24 08:44:14;;;;;;;9.32;4.30;;;12.30;99.90;;;;;;5030833;28;20530;-79
2023/09/24 08:46:41;;;;;;;9.18;5.15;;;12.40;99.90;;;;;;5041128;28;20530;-79
2023/09/24 08:49:06;;;;;;;8.32;5.10;;;12.40;99.90;;;;;;5039715;28;20040;-78
2023/09/24 08:51:33;;;;;;;12.93;4.80;;;12.50;99.90;;;;;;5034330;28;20636;-78
2023/09/24 08:54:00;;;;;;;8.57;5.05;;;12.50;99.90;;;;;;5020361;28;20127;-78
2023/09/24 08:56:26;;;;;;;6.50;3.78;;;12.60;99.90;;;;;;5045034;28;20502;-78
2023/09/24 08:58:53;;;;;;;8.18;4.68;;;12.70;99.90;;;;;;5014325;28;20055;-77
2023/09/24 09:01:18;;;;;;;7.80;4.30;;;12.70;99.90;;;;;;5022401;28;20148;-78
2023/09/24 09:03:44;;;;;;;14.85;4.50;;;12.80;99.90;;;;;;5008463;28;20128;-78
2023/09/24 09:06:12;;;;;;;8.45;4.47;;;12.90;99.90;;;;;;5012607;28;20084;-78
2023/09/24 09:08:53;;;;;;;9.20;4.45;;;12.90;99.90;;;;;;5037126;28;20048;-79
2023/09/24 09:11:19;;;;;;;7.50;4.40;;;13.10;99.90;;;;;;5034284;28;20045;-79
2023/09/24 09:13:48;;;;;;;7.97;4.22;;;13.10;99.90;;;;;;5034269;28;20048;-78
2023/09/24 09:16:16;;;;;;;9.27;4.30;;;13.20;99.90;;;;;;5019693;28;20060;-78
2023/09/24 09:18:42;;;;;;;7.70;3.85;;;13.30;99.90;;;;;;5024240;28;20057;-78
2023/09/24 09:21:08;;;;;;;5.32;3.90;;;13.40;99.90;;;;;;5009382;28;20053;-79
2023/09/24 09:23:36;;;;;;;6.60;3.95;;;13.50;99.90;;;;;;5022926;28;20052;-80
2023/09/24 09:26:03;;;;;;;7.82;4.32;;;13.60;99.90;;;;;;5011894;28;20053;-79
2023/09/24 09:28:31;;;;;;;7.80;4.20;;;13.70;99.90;;;;;;5012471;28;20128;-79
2023/09/24 09:31:11;;;;;;;11.50;3.80;;;13.90;99.90;;;;;;5019436;28;20048;-83
2023/09/24 09:33:42;;;;;;;10.05;4.22;;;14.00;99.90;;;;;;5020832;28;20037;-83
2023/09/24 09:36:27;;;;;;;8.18;3.65;;;14.30;99.90;;;;;;5024024;28;20231;-83
2023/09/24 09:38:54;;;;;;;4.20;2.65;;;14.50;99.90;;;;;;5007774;28;20049;-83
2023/09/24 09:41:23;;;;;;;5.97;2.50;;;14.70;99.90;;;;;;5017783;28;20061;-83
2023/09/24 09:43:51;;;;;;;7.32;2.42;;;14.80;99.90;;;;;;5022636;28;20038;-83
2023/09/24 09:46:18;;;;;;;4.63;2.00;;;14.90;99.90;;;;;;5011030;28;20049;-83
2023/09/24 09:49:07;;;;;;;5.57;2.10;;;15.20;99.90;;;;;;5025594;28;20045;-84
2023/09/24 09:51:47;;;;;;;3.85;1.80;;;15.50;99.90;;;;;;5004363;28;20040;-83
2023/09/24 09:54:15;;;;;;;3.97;1.60;;;15.70;99.90;;;;;;5019512;28;20045;-83
2023/09/24 09:56:41;;;;;;;4.15;1.70;;;15.80;99.90;;;;;;5029910;28;20045;-83
2023/09/24 09:59:08;;;;;;;5.05;1.30;;;16.00;99.90;;;;;;5025590;28;20049;-83
2023/09/24 10:01:35;;;;;;;5.13;1.48;;;16.20;99.90;;;;;;5027498;28;20057;-84
2023/09/24 10:04:03;;;;;;;8.10;2.10;;;16.20;99.90;;;;;;5022411;28;20056;-84
2023/09/24 10:06:35;;;;;;;4.65;1.58;;;16.40;99.90;;;;;;5011370;28;20106;-83
2023/09/24 10:09:01;;;;;;;6.43;1.67;;;16.50;99.90;;;;;;5013961;28;20033;-83
2023/09/24 10:11:32;;;;;;;4.57;1.98;;;16.80;99.90;;;;;;5028031;28;20491;-83
2023/09/24 10:14:05;;;;;;;5.60;2.13;;;17.00;99.90;;;;;;5009392;28;20041;-83
2023/09/24 10:16:38;;;;;;;4.97;1.55;;;17.30;99.90;;;;;;5032741;28;20664;-84
2023/09/24 10:19:09;;;;;;;5.75;1.92;;;17.70;99.90;;;;;;5032728;28;20053;-83
2023/09/24 10:21:40;;;;;;;4.53;1.55;;;18.40;99.90;;;;;;5023745;28;20544;-83
2023/09/24 10:24:12;;;;;;;6.93;2.08;;;19.40;99.90;;;;;;5027923;28;20036;-84
2023/09/24 10:26:50;;;;;;;3.75;1.67;;;20.30;99.90;;;;;;5025253;28;20156;-82
2023/09/24 10:29:18;;;;;;;2.92;1.75;;;20.90;99.90;;;;;;5012173;28;20763;-83
2023/09/24 10:32:09;;;;;;;7.05;2.13;;;21.50;99.90;;;;;;5030849;28;20076;-82
2023/09/24 10:34:57;;;;;;;5.70;2.00;;;21.70;99.90;;;;;;5030093;28;20069;-82
2023/09/24 10:37:30;;;;;;;5.65;1.77;;;22.40;99.90;;;;;;5012628;28;20098;-80
2023/09/24 10:39:59;;;;;;;3.58;1.08;;;22.80;99.90;;;;;;5037628;28;20150;-80
2023/09/24 10:42:39;;;;;;;5.68;1.30;;;23.00;99.90;;;;;;5037638;28;20442;-80
2023/09/24 10:45:10;;;;;;;4.03;1.65;;;22.80;93.90;;;;;;5021087;28;20814;-81
2023/09/24 10:47:40;;;;;;;3.53;1.20;;;23.30;99.90;;;;;;5044741;28;20095;-81
2023/09/24 10:50:14;;;;;;;5.00;1.60;;;23.60;1.00;;;;;;5041690;28;20053;-81
2023/09/24 10:52:46;;;;;;;4.38;1.25;;;24.20;1.00;;;;;;5038198;28;20049;-80
2023/09/24 10:55:11;;;;;;;6.53;1.60;;;24.70;99.90;;;;;;5045336;28;20044;-81
2023/09/24 10:57:37;;;;;;;3.10;1.30;;;24.90;1.00;;;;;;5021835;28;20051;-81
2023/09/24 11:00:04;;;;;;;4.03;1.10;;;25.00;1.00;;;;;;5022239;28;20048;-81
2023/09/24 11:02:30;;;;;;;2.00;1.10;;;25.20;99.90;;;;;;5026368;28;20256;-81
2023/09/24 11:05:02;;;;;;;3.63;1.00;;;25.40;99.90;;;;;;5028302;28;20550;-80
2023/09/24 11:07:27;;;;;;;5.30;1.10;;;25.60;99.90;;;;;;5042104;28;20534;-81
2023/09/24 11:09:53;;;;;;;3.13;1.45;;;25.50;62.20;;;;;;5029498;28;20032;-81
2023/09/24 11:12:19;;;;;;;2.38;0.95;;;25.30;64.80;;;;;;5028173;28;20044;-82
2023/09/24 11:14:58;;;;;;;4.60;1.50;;;25.40;99.90;;;;;;5044925;28;20048;-81
2023/09/24 11:17:24;;;;;;;3.30;1.23;;;25.70;99.90;;;;;;5026145;28;20047;-82
2023/09/24 11:19:50;;;;;;;3.40;1.00;;;26.00;33.20;;;;;;5024758;28;20044;-81
2023/09/24 11:22:26;;;;;;;4.10;0.95;;;26.40;10.50;;;;;;5041286;28;20396;-82
2023/09/24 11:25:12;;;;;;;3.88;1.10;;;26.90;67.40;;;;;;5018877;28;20060;-82
2023/09/24 11:27:58;;;;;;;4.45;1.15;;;27.30;11.00;;;;;;5042837;28;20653;-82
2023/09/24 11:30:37;;;;;;;3.25;1.25;;;27.90;29.70;;;;;;5042651;28;20033;-82
2023/09/24 11:33:11;;;;;;;4.53;1.00;;;28.10;1.00;;;;;;5040307;28;20468;-80
2023/09/24 11:35:37;;;;;;;2.30;0.88;;;28.70;1.00;;;;;;5020401;28;20056;-81
2023/09/24 11:38:03;;;;;;;2.63;1.10;;;29.10;1.00;;;;;;5024286;28;20045;-81
2023/09/24 11:40:33;;;;;;;2.47;0.88;;;28.70;1.00;;;;;;5032616;28;20051;-81
2023/09/24 11:43:10;;;;;;;3.80;1.10;;;28.40;1.00;;;;;;5046105;28;20140;-80
2023/09/24 11:46:05;;;;;;;1.83;0.85;;;28.40;1.00;;;;;;5025166;28;20059;-81
2023/09/24 11:48:31;;;;;;;3.05;0.70;;;28.80;1.00;;;;;;5026600;28;20037;-80
2023/09/24 11:51:00;;;;;;;5.63;1.00;;;29.10;1.00;;;;;;5042085;28;20051;-84
2023/09/24 11:53:26;;;;;;;3.63;0.90;;;29.10;1.00;;;;;;5049175;28;20043;-81
2023/09/24 11:55:54;;;;;;;4.25;1.00;;;29.30;1.00;;;;;;5023684;28;20037;-82
2023/09/24 11:58:25;;;;;;;2.90;1.13;;;29.50;1.00;;;;;;5045210;28;20045;-83
2023/09/24 12:00:52;;;;;;;2.85;0.60;;;29.80;1.00;;;;;;5034064;28;20111;-84
2023/09/24 12:03:20;;;;;;;1.05;0.52;;;29.90;1.00;;;;;;5031948;28;20040;-82
2023/09/24 12:05:47;;;;;;;2.15;0.73;;;29.80;1.00;;;;;;5043946;28;20052;-82
2023/09/24 12:08:13;;;;;;;2.85;0.65;;;29.50;1.00;;;;;;5025990;28;20468;-82
2023/09/24 12:10:41;;;;;;;3.10;1.00;;;28.90;1.00;;;;;;5030374;28;20051;-83
2023/09/24 12:13:08;;;;;;;2.45;0.95;;;28.50;1.00;;;;;;5047189;28;20040;-82
2023/09/24 12:15:34;;;;;;;3.42;1.27;;;28.20;1.00;;;;;;5045345;28;20048;-83
2023/09/24 12:18:04;;;;;;;1.95;0.80;;;27.90;1.00;;;;;;5025112;28;20048;-82
2023/09/24 12:20:34;;;;;;;4.22;1.00;;;27.60;1.00;;;;;;5037468;28;20072;-82
2023/09/24 12:23:01;;;;;;;1.60;0.70;;;27.30;1.00;;;;;;5025733;28;20037;-82
2023/09/24 12:25:28;;;;;;;1.48;0.70;;;27.50;1.00;;;;;;5041988;28;20402;-82
2023/09/24 12:27:54;;;;;;;2.45;1.00;;;27.80;1.00;;;;;;5046702;28;20123;-83
2023/09/24 12:30:20;;;;;;;2.22;0.90;;;28.00;1.00;;;;;;5032969;28;20115;-83
2023/09/24 12:32:45;;;;;;;2.05;0.70;;;28.20;1.00;;;;;;5023953;28;20079;-83
2023/09/24 12:35:11;;;;;;;3.25;1.00;;;28.40;1.00;;;;;;5060451;28;20058;-83
2023/09/24 12:37:38;;;;;;;3.65;0.70;;;28.50;1.00;;;;;;5043779;28;20486;-83
2023/09/24 12:40:07;;;;;;;2.22;0.80;;;28.60;1.00;;;;;;5043990;28;20047;-83
2023/09/24 12:42:37;;;;;;;2.70;0.70;;;28.80;1.00;;;;;;5025750;28;20147;-83
2023/09/24 12:45:04;;;;;;;1.75;0.60;;;29.00;1.00;;;;;;5029518;28;20123;-82
2023/09/24 12:47:33;;;;;;;3.13;0.90;;;29.50;1.00;;;;;;5027564;28;20075;-82
2023/09/24 12:50:00;;;;;;;2.30;0.70;;;29.50;1.00;;;;;;5041649;28;20052;-82
2023/09/24 12:52:30;;;;;;;4.13;1.27;;;29.60;1.00;;;;;;5027324;28;20032;-83
2023/09/24 12:54:56;;;;;;;2.40;0.80;;;29.80;1.00;;;;;;5016334;28;20547;-84
2023/09/24 12:57:22;;;;;;;2.88;1.00;;;29.90;1.00;;;;;;5045666;28;20052;-84